Time;durP1;ratioP1;P1;durP2;ratioP2;P2;SDS_P1;SDS_P2;PMS_P1;PMS_P2;Temp;Humidity;BMP_temperature;BMP_pressure;BME280_temperature;BME280_humidity;BME280_pressure;Samples;Min_cycle;Max_cycle;Signal;HPM_P1;HPM_P2
2021/12/30 00:01:48;;;;;;;40.50;14.73;;;;;;;;;;6289753;28;20218;-80
2021/12/30 00:04:53;;;;;;;43.40;15.03;;;;;;;;;;6290081;28;20187;-80
2021/12/30 00:07:57;;;;;;;32.87;14.10;;;;;;;;;;6288749;28;20401;-80
2021/12/30 00:11:03;;;;;;;37.30;14.33;;;;;;;;;;6289225;28;20477;-80
2021/12/30 00:14:08;;;;;;;39.67;15.07;;;;;;;;;;6289236;28;20494;-80
2021/12/30 00:17:13;;;;;;;32.30;13.90;;;;;;;;;;6290329;28;20190;-80
2021/12/30 00:20:18;;;;;;;40.17;15.27;;;;;;;;;;6288822;28;20207;-80
2021/12/30 00:23:23;;;;;;;38.63;13.43;;;;;;;;;;6290304;28;20194;-80
2021/12/30 00:26:29;;;;;;;40.60;14.40;;;;;;;;;;6289541;28;20466;-80
2021/12/30 00:29:33;;;;;;;31.77;13.27;;;;;;;;;;6289404;28;20211;-80
2021/12/30 00:32:38;;;;;;;32.70;12.17;;;;;;;;;;6291190;28;20188;-80
2021/12/30 00:35:44;;;;;;;31.73;13.80;;;;;;;;;;6294146;28;20522;-80
2021/12/30 00:38:49;;;;;;;31.80;13.47;;;;;;;;;;6295122;28;20189;-80
2021/12/30 00:41:55;;;;;;;29.23;12.77;;;;;;;;;;6295010;28;20187;-80
2021/12/30 00:44:59;;;;;;;32.00;13.40;;;;;;;;;;6294867;28;20238;-80
2021/12/30 00:48:05;;;;;;;35.90;13.73;;;;;;;;;;6296127;28;20333;-80
2021/12/30 00:51:10;;;;;;;40.37;15.57;;;;;;;;;;6295402;28;20193;-80
2021/12/30 00:54:15;;;;;;;35.93;13.57;;;;;;;;;;6295787;28;20188;-80
2021/12/30 00:57:22;;;;;;;36.47;13.17;;;;;;;;;;6295140;28;20296;-81
2021/12/30 01:00:27;;;;;;;30.13;14.03;;;;;;;;;;6295750;28;20222;-79
2021/12/30 01:03:34;;;;;;;32.63;14.47;;;;;;;;;;6294134;28;20188;-80
2021/12/30 01:06:39;;;;;;;44.60;18.03;;;;;;;;;;6294176;28;20185;-80
2021/12/30 01:09:43;;;;;;;31.40;13.40;;;;;;;;;;6294460;28;20211;-80
2021/12/30 01:12:49;;;;;;;37.67;14.50;;;;;;;;;;6294578;28;20265;-80
2021/12/30 01:16:00;;;;;;;30.50;13.87;;;;;;;;;;6294443;28;20195;-80
2021/12/30 01:19:21;;;;;;;30.90;13.57;;;;;;;;;;6294308;28;20224;-80
2021/12/30 01:22:28;;;;;;;31.13;13.77;;;;;;;;;;6294826;28;20187;-80
2021/12/30 01:25:32;;;;;;;30.73;12.50;;;;;;;;;;6294188;28;20218;-80
2021/12/30 01:28:39;;;;;;;29.00;13.17;;;;;;;;;;6295222;28;20226;-80
2021/12/30 01:31:43;;;;;;;36.30;13.30;;;;;;;;;;6294079;28;20188;-80
2021/12/30 01:34:56;;;;;;;31.40;13.33;;;;;;;;;;6294377;28;20188;-80
2021/12/30 01:38:01;;;;;;;25.50;12.90;;;;;;;;;;6294689;28;20374;-80
2021/12/30 01:41:08;;;;;;;29.20;13.27;;;;;;;;;;6294181;28;20198;-80
2021/12/30 01:44:14;;;;;;;30.37;13.50;;;;;;;;;;6294328;28;20185;-80
2021/12/30 01:47:18;;;;;;;32.63;13.73;;;;;;;;;;6293750;28;20237;-80
2021/12/30 01:50:23;;;;;;;31.50;13.93;;;;;;;;;;6294003;28;20254;-80
2021/12/30 01:53:27;;;;;;;35.60;14.30;;;;;;;;;;6294149;28;20248;-80
2021/12/30 01:56:32;;;;;;;32.83;14.43;;;;;;;;;;6294206;28;20188;-80
2021/12/30 01:59:37;;;;;;;31.67;13.20;;;;;;;;;;6292976;28;20189;-80
2021/12/30 02:02:42;;;;;;;31.27;13.77;;;;;;;;;;6293494;28;20189;-80
2021/12/30 02:05:48;;;;;;;35.10;14.10;;;;;;;;;;6293399;28;20187;-80
2021/12/30 02:08:53;;;;;;;26.17;12.70;;;;;;;;;;6293179;28;20185;-80
2021/12/30 02:12:00;;;;;;;32.00;13.87;;;;;;;;;;6292551;28;20194;-80
2021/12/30 02:15:08;;;;;;;29.70;12.97;;;;;;;;;;6293690;28;20214;-80
2021/12/30 02:18:12;;;;;;;28.10;12.07;;;;;;;;;;6293202;28;20219;-80
2021/12/30 02:21:18;;;;;;;26.50;12.60;;;;;;;;;;6291542;28;20379;-80
2021/12/30 02:24:22;;;;;;;28.00;12.67;;;;;;;;;;6293044;28;20188;-80
2021/12/30 02:27:27;;;;;;;31.23;12.70;;;;;;;;;;6292886;28;20223;-79
2021/12/30 02:30:32;;;;;;;30.33;13.33;;;;;;;;;;6292309;28;20442;-80
2021/12/30 02:33:36;;;;;;;32.30;13.47;;;;;;;;;;6293140;28;20193;-80
2021/12/30 02:36:42;;;;;;;25.90;13.17;;;;;;;;;;6294412;28;20195;-80
2021/12/30 02:39:50;;;;;;;33.13;12.53;;;;;;;;;;6293380;28;20258;-79
2021/12/30 02:42:54;;;;;;;27.57;12.47;;;;;;;;;;6292988;28;20210;-80
2021/12/30 02:46:00;;;;;;;27.53;12.43;;;;;;;;;;6291232;28;20230;-79
2021/12/30 02:49:07;;;;;;;28.90;12.63;;;;;;;;;;6293165;28;20245;-79
2021/12/30 02:52:15;;;;;;;27.57;12.93;;;;;;;;;;6293974;28;20197;-80
2021/12/30 02:55:19;;;;;;;28.97;13.13;;;;;;;;;;6295025;28;20293;-80
2021/12/30 02:58:26;;;;;;;30.43;12.63;;;;;;;;;;6296385;28;20194;-80
2021/12/30 03:01:32;;;;;;;24.20;12.43;;;;;;;;;;6296017;28;20198;-80
2021/12/30 03:04:55;;;;;;;30.63;13.73;;;;;;;;;;6296063;28;20215;-79
2021/12/30 03:08:01;;;;;;;28.60;13.03;;;;;;;;;;6292303;28;20202;-79
2021/12/30 03:11:06;;;;;;;29.90;12.37;;;;;;;;;;6290943;28;20383;-79
2021/12/30 03:14:12;;;;;;;35.27;14.40;;;;;;;;;;6291861;28;20187;-79
2021/12/30 03:17:16;;;;;;;37.13;17.20;;;;;;;;;;6290724;28;20518;-79
2021/12/30 03:20:21;;;;;;;26.73;12.23;;;;;;;;;;6291575;28;20191;-79
2021/12/30 03:23:27;;;;;;;30.80;12.87;;;;;;;;;;6291876;28;20210;-79
2021/12/30 03:26:32;;;;;;;27.10;13.23;;;;;;;;;;6291760;28;20290;-79
2021/12/30 03:29:36;;;;;;;35.03;13.97;;;;;;;;;;6290968;28;20217;-79
2021/12/30 03:32:40;;;;;;;35.80;14.20;;;;;;;;;;6291103;28;20185;-80
2021/12/30 03:35:44;;;;;;;28.33;12.27;;;;;;;;;;6291063;28;20266;-79
2021/12/30 03:38:53;;;;;;;31.90;14.23;;;;;;;;;;6291827;28;20269;-79
2021/12/30 03:41:57;;;;;;;32.90;13.87;;;;;;;;;;6291263;28;20255;-80
2021/12/30 03:45:02;;;;;;;32.93;13.13;;;;;;;;;;6291623;28;20189;-79
2021/12/30 03:48:07;;;;;;;35.67;14.10;;;;;;;;;;6290765;28;20239;-80
2021/12/30 03:51:21;;;;;;;31.17;16.73;;;;;;;;;;6291291;28;20222;-80
2021/12/30 03:54:26;;;;;;;53.60;25.13;;;;;;;;;;6291637;28;20199;-80
2021/12/30 03:57:30;;;;;;;27.33;11.67;;;;;;;;;;6291515;28;20188;-79
2021/12/30 04:00:37;;;;;;;26.77;12.57;;;;;;;;;;6291255;28;20191;-79
2021/12/30 04:03:41;;;;;;;28.83;13.27;;;;;;;;;;6290340;28;20528;-79
2021/12/30 04:06:45;;;;;;;73.77;35.83;;;;;;;;;;6290009;28;20188;-79
2021/12/30 04:09:51;;;;;;;281.47;81.17;;;;;;;;;;6327697;28;20232;-79
2021/12/30 04:12:56;;;;;;;34.60;15.33;;;;;;;;;;6295399;28;20250;-80
2021/12/30 04:16:00;;;;;;;25.57;11.30;;;;;;;;;;6295665;28;20185;-79
2021/12/30 04:19:06;;;;;;;26.27;10.93;;;;;;;;;;6294375;28;20251;-79
2021/12/30 04:22:14;;;;;;;25.17;11.67;;;;;;;;;;6294080;28;20532;-79
2021/12/30 04:25:20;;;;;;;28.50;11.97;;;;;;;;;;6294773;28;20186;-79
2021/12/30 04:28:25;;;;;;;26.40;12.93;;;;;;;;;;6295267;28;20227;-79
2021/12/30 04:31:29;;;;;;;25.10;12.00;;;;;;;;;;6294697;28;20221;-79
2021/12/30 04:34:34;;;;;;;27.97;12.20;;;;;;;;;;6294753;28;20187;-79
2021/12/30 04:37:38;;;;;;;24.60;10.70;;;;;;;;;;6294831;28;20213;-80
2021/12/30 04:40:44;;;;;;;25.90;11.23;;;;;;;;;;6294873;28;20223;-79
2021/12/30 04:43:48;;;;;;;28.20;12.70;;;;;;;;;;6294956;28;20188;-79
2021/12/30 04:46:52;;;;;;;25.03;11.43;;;;;;;;;;6295004;28;20259;-79
2021/12/30 04:49:57;;;;;;;27.70;12.07;;;;;;;;;;6296033;28;20195;-79
2021/12/30 04:53:02;;;;;;;25.10;11.33;;;;;;;;;;6295479;28;20219;-79
2021/12/30 04:56:08;;;;;;;31.20;11.97;;;;;;;;;;6294704;28;20194;-79
2021/12/30 04:59:15;;;;;;;27.27;12.47;;;;;;;;;;6293841;28;20189;-79
2021/12/30 05:02:19;;;;;;;27.87;12.27;;;;;;;;;;6293264;28;20389;-79
2021/12/30 05:05:24;;;;;;;24.70;10.87;;;;;;;;;;6293894;28;20191;-79
2021/12/30 05:08:28;;;;;;;26.20;11.23;;;;;;;;;;6293944;28;20225;-79
2021/12/30 05:11:34;;;;;;;24.73;10.97;;;;;;;;;;6293136;28;20239;-79
2021/12/30 05:14:38;;;;;;;22.30;11.30;;;;;;;;;;6293767;28;20267;-79
2021/12/30 05:17:43;;;;;;;25.43;10.47;;;;;;;;;;6292653;28;20193;-79
2021/12/30 05:20:48;;;;;;;25.33;11.13;;;;;;;;;;6294039;28;20202;-79
2021/12/30 05:23:52;;;;;;;21.63;10.90;;;;;;;;;;6292696;28;20245;-79
2021/12/30 05:26:57;;;;;;;27.57;12.23;;;;;;;;;;6293201;28;20192;-79
2021/12/30 05:30:02;;;;;;;20.20;9.93;;;;;;;;;;6293814;28;20192;-79
2021/12/30 05:33:06;;;;;;;20.43;9.47;;;;;;;;;;6293477;28;20276;-79
2021/12/30 05:36:10;;;;;;;17.93;10.20;;;;;;;;;;6293631;28;20199;-79
2021/12/30 05:39:15;;;;;;;25.87;10.50;;;;;;;;;;6293723;28;20194;-79
2021/12/30 05:42:22;;;;;;;22.50;10.20;;;;;;;;;;6293873;28;20199;-79
2021/12/30 05:45:27;;;;;;;23.17;10.90;;;;;;;;;;6291855;28;20203;-79
2021/12/30 05:48:32;;;;;;;18.63;9.63;;;;;;;;;;6293356;28;20197;-79
2021/12/30 05:51:36;;;;;;;18.43;10.23;;;;;;;;;;6293468;28;20241;-79
2021/12/30 05:54:41;;;;;;;17.90;10.07;;;;;;;;;;6294789;28;20321;-79
2021/12/30 05:57:46;;;;;;;20.17;10.37;;;;;;;;;;6293415;28;20194;-79
2021/12/30 06:00:51;;;;;;;23.23;10.50;;;;;;;;;;6291864;28;20187;-79
2021/12/30 06:03:55;;;;;;;19.30;10.17;;;;;;;;;;6291468;28;20404;-79
2021/12/30 06:06:59;;;;;;;24.13;9.83;;;;;;;;;;6291695;28;20216;-79
2021/12/30 06:10:06;;;;;;;18.37;9.87;;;;;;;;;;6292153;28;20391;-79
2021/12/30 06:13:11;;;;;;;16.60;9.60;;;;;;;;;;6292539;28;20215;-79
2021/12/30 06:16:16;;;;;;;15.63;8.57;;;;;;;;;;6291521;28;20199;-79
2021/12/30 06:19:20;;;;;;;16.73;9.33;;;;;;;;;;6292086;28;20225;-80
2021/12/30 06:22:25;;;;;;;15.23;8.40;;;;;;;;;;6291161;28;20198;-79
2021/12/30 06:25:29;;;;;;;15.90;8.53;;;;;;;;;;6291634;28;20251;-78
2021/12/30 06:28:35;;;;;;;15.40;9.47;;;;;;;;;;6290472;28;20362;-79
2021/12/30 06:31:40;;;;;;;14.17;8.57;;;;;;;;;;6289348;28;20526;-79
2021/12/30 06:34:44;;;;;;;15.47;8.63;;;;;;;;;;6291420;28;20187;-81
2021/12/30 06:37:48;;;;;;;18.07;8.53;;;;;;;;;;6292579;28;20193;-80
2021/12/30 06:40:52;;;;;;;13.63;7.70;;;;;;;;;;6290405;28;20212;-81
2021/12/30 06:43:58;;;;;;;13.10;8.07;;;;;;;;;;6290391;28;20274;-78
2021/12/30 06:47:05;;;;;;;14.13;8.27;;;;;;;;;;6291117;28;20229;-81
2021/12/30 06:50:13;;;;;;;12.53;7.73;;;;;;;;;;6291642;28;20286;-81
2021/12/30 06:53:17;;;;;;;14.10;7.93;;;;;;;;;;6291038;28;20230;-81
2021/12/30 06:56:22;;;;;;;10.17;8.00;;;;;;;;;;6291199;28;20210;-81
2021/12/30 06:59:27;;;;;;;10.60;7.67;;;;;;;;;;6292352;28;20186;-81
2021/12/30 07:02:32;;;;;;;14.23;8.10;;;;;;;;;;6290812;28;20358;-81
2021/12/30 07:05:37;;;;;;;13.80;8.03;;;;;;;;;;6289806;28;20267;-81
2021/12/30 07:08:41;;;;;;;14.63;7.57;;;;;;;;;;6290374;28;20360;-81
2021/12/30 07:11:48;;;;;;;10.70;8.13;;;;;;;;;;6291592;28;20207;-81
2021/12/30 07:14:54;;;;;;;13.13;7.90;;;;;;;;;;6292004;28;20191;-81
2021/12/30 07:17:58;;;;;;;12.93;8.47;;;;;;;;;;6291647;28;20191;-81
2021/12/30 07:21:03;;;;;;;13.50;7.67;;;;;;;;;;6290133;28;20394;-81
2021/12/30 07:24:07;;;;;;;13.30;8.67;;;;;;;;;;6296918;28;20242;-80
2021/12/30 07:27:13;;;;;;;15.63;9.23;;;;;;;;;;6296611;28;20352;-80
2021/12/30 07:30:22;;;;;;;15.20;9.30;;;;;;;;;;6296615;28;20266;-80
2021/12/30 07:33:26;;;;;;;15.20;9.37;;;;;;;;;;6296357;28;20221;-81
2021/12/30 07:36:30;;;;;;;17.30;9.57;;;;;;;;;;6295858;28;20242;-80
2021/12/30 07:39:35;;;;;;;16.67;9.00;;;;;;;;;;6296428;28;20191;-80
2021/12/30 07:42:39;;;;;;;18.37;9.50;;;;;;;;;;6297326;28;20195;-79
2021/12/30 07:45:45;;;;;;;16.57;9.57;;;;;;;;;;6296576;28;20263;-79
2021/12/30 07:48:49;;;;;;;18.30;9.97;;;;;;;;;;6296485;28;20479;-79
2021/12/30 07:51:53;;;;;;;13.50;8.90;;;;;;;;;;6296855;28;20188;-79
2021/12/30 07:54:58;;;;;;;18.03;10.00;;;;;;;;;;6296162;28;20187;-79
2021/12/30 07:58:02;;;;;;;12.97;8.53;;;;;;;;;;6294553;28;20211;-79
2021/12/30 08:01:08;;;;;;;13.73;8.73;;;;;;;;;;6290351;28;20188;-79
2021/12/30 08:04:13;;;;;;;17.67;9.30;;;;;;;;;;6291066;28;20198;-80
2021/12/30 08:07:21;;;;;;;19.20;9.40;;;;;;;;;;6289190;28;20497;-80
2021/12/30 08:10:26;;;;;;;14.87;8.27;;;;;;;;;;6289950;28;20186;-80
2021/12/30 08:13:31;;;;;;;12.93;7.77;;;;;;;;;;6289184;28;20477;-79
2021/12/30 08:16:37;;;;;;;8.73;7.07;;;;;;;;;;6289745;28;20194;-81
2021/12/30 08:19:41;;;;;;;10.53;7.77;;;;;;;;;;6290925;28;20194;-79
2021/12/30 08:22:46;;;;;;;14.67;7.17;;;;;;;;;;6291785;28;20234;-80
2021/12/30 08:25:51;;;;;;;14.67;8.00;;;;;;;;;;6292101;28;20348;-80
2021/12/30 08:28:55;;;;;;;10.93;7.50;;;;;;;;;;6293128;28;20192;-80
2021/12/30 08:32:01;;;;;;;9.10;7.37;;;;;;;;;;6294371;28;20184;-80
2021/12/30 08:35:06;;;;;;;14.87;8.07;;;;;;;;;;6294622;28;20517;-80
2021/12/30 08:38:13;;;;;;;12.40;7.60;;;;;;;;;;6296074;28;20207;-80
2021/12/30 08:41:17;;;;;;;9.97;7.13;;;;;;;;;;6296338;28;20252;-81
2021/12/30 08:44:21;;;;;;;11.40;7.33;;;;;;;;;;6294905;28;20230;-80
2021/12/30 08:47:28;;;;;;;10.73;6.90;;;;;;;;;;6291283;28;20236;-81
2021/12/30 08:50:32;;;;;;;14.07;7.13;;;;;;;;;;6290902;28;20250;-80
2021/12/30 08:53:40;;;;;;;12.43;7.80;;;;;;;;;;6291985;28;20345;-80
2021/12/30 08:56:48;;;;;;;11.93;7.27;;;;;;;;;;6294295;28;20474;-81
2021/12/30 08:59:52;;;;;;;15.03;7.77;;;;;;;;;;6295521;28;20193;-81
2021/12/30 09:03:00;;;;;;;11.03;7.30;;;;;;;;;;6296329;28;20302;-80
2021/12/30 09:06:06;;;;;;;16.13;7.87;;;;;;;;;;6296098;28;20184;-81
2021/12/30 09:09:10;;;;;;;12.77;8.10;;;;;;;;;;6296498;28;20330;-80
2021/12/30 09:12:16;;;;;;;11.23;7.40;;;;;;;;;;6296686;28;20255;-80
2021/12/30 09:15:22;;;;;;;13.83;8.20;;;;;;;;;;6294813;28;20211;-80
2021/12/30 09:18:27;;;;;;;17.30;9.00;;;;;;;;;;6294981;28;20252;-80
2021/12/30 09:21:32;;;;;;;16.63;8.57;;;;;;;;;;6294969;28;20185;-80
2021/12/30 09:24:36;;;;;;;15.67;9.20;;;;;;;;;;6295275;28;20220;-80
2021/12/30 09:27:45;;;;;;;23.50;10.37;;;;;;;;;;6295464;28;20193;-80
2021/12/30 09:30:49;;;;;;;18.63;10.30;;;;;;;;;;6294841;28;20195;-81
2021/12/30 09:33:57;;;;;;;19.97;9.70;;;;;;;;;;6296401;28;20212;-81
2021/12/30 09:37:02;;;;;;;19.83;9.67;;;;;;;;;;6296028;28;20219;-81
2021/12/30 09:40:13;;;;;;;19.93;9.97;;;;;;;;;;6294173;28;20266;-80
2021/12/30 09:43:17;;;;;;;19.07;9.50;;;;;;;;;;6296018;28;20215;-80
2021/12/30 09:46:22;;;;;;;20.73;9.97;;;;;;;;;;6296087;28;20235;-81
2021/12/30 09:49:28;;;;;;;18.17;9.47;;;;;;;;;;6297782;28;20244;-80
2021/12/30 09:52:32;;;;;;;18.17;9.07;;;;;;;;;;6298982;28;20181;-81
2021/12/30 09:55:38;;;;;;;14.17;8.70;;;;;;;;;;6298319;28;20211;-81
2021/12/30 09:58:42;;;;;;;17.70;8.67;;;;;;;;;;6298370;28;20355;-81
2021/12/30 10:01:47;;;;;;;16.73;8.00;;;;;;;;;;6298721;28;20184;-81
2021/12/30 10:05:04;;;;;;;14.90;7.90;;;;;;;;;;6298863;28;20490;-80
2021/12/30 10:08:14;;;;;;;16.77;7.13;;;;;;;;;;6299386;28;20192;-81
2021/12/30 10:11:18;;;;;;;11.93;6.70;;;;;;;;;;6300090;28;20203;-80
2021/12/30 10:14:27;;;;;;;14.53;6.47;;;;;;;;;;6298576;28;20212;-81
2021/12/30 10:17:32;;;;;;;10.10;6.13;;;;;;;;;;6298329;28;20184;-81
2021/12/30 10:20:40;;;;;;;9.93;5.63;;;;;;;;;;6298607;28;20184;-81
2021/12/30 10:23:45;;;;;;;12.43;5.23;;;;;;;;;;6297245;28;20197;-81
2021/12/30 10:26:51;;;;;;;9.93;5.30;;;;;;;;;;6297142;28;20186;-81
2021/12/30 10:29:57;;;;;;;8.90;4.60;;;;;;;;;;6302388;28;20185;-80
2021/12/30 10:33:12;;;;;;;7.07;4.83;;;;;;;;;;6303357;28;20290;-80
2021/12/30 10:36:21;;;;;;;6.57;4.47;;;;;;;;;;6302748;28;20236;-82
2021/12/30 10:39:27;;;;;;;7.50;5.13;;;;;;;;;;6301467;28;20190;-80
2021/12/30 10:42:33;;;;;;;5.87;3.97;;;;;;;;;;6302489;28;20191;-79
2021/12/30 10:45:38;;;;;;;9.43;4.67;;;;;;;;;;6297987;28;20229;-78
2021/12/30 10:48:56;;;;;;;10.07;4.47;;;;;;;;;;6294325;28;20422;-78
2021/12/30 10:52:06;;;;;;;7.83;4.23;;;;;;;;;;6297135;28;20192;-78
2021/12/30 10:55:13;;;;;;;6.00;4.47;;;;;;;;;;6296431;28;20290;-79
2021/12/30 10:58:25;;;;;;;5.10;3.87;;;;;;;;;;6296128;28;20210;-79
2021/12/30 11:01:29;;;;;;;4.77;4.30;;;;;;;;;;6295476;28;20224;-79
2021/12/30 11:04:37;;;;;;;5.90;4.10;;;;;;;;;;6293617;28;20198;-79
2021/12/30 11:07:46;;;;;;;7.13;4.20;;;;;;;;;;6292804;28;20217;-80
2021/12/30 11:10:50;;;;;;;4.67;3.70;;;;;;;;;;6294266;28;20480;-81
2021/12/30 11:13:59;;;;;;;8.73;4.33;;;;;;;;;;6292731;28;20522;-81
2021/12/30 11:17:10;;;;;;;8.07;4.60;;;;;;;;;;6293003;28;20192;-80
2021/12/30 11:20:17;;;;;;;4.30;3.40;;;;;;;;;;6293338;28;20188;-81
2021/12/30 11:23:23;;;;;;;5.67;3.87;;;;;;;;;;6293712;28;20187;-81
2021/12/30 11:26:28;;;;;;;7.07;5.10;;;;;;;;;;6292981;28;20254;-80
2021/12/30 11:29:35;;;;;;;5.00;3.80;;;;;;;;;;6292495;28;20187;-80
2021/12/30 11:32:39;;;;;;;4.97;4.37;;;;;;;;;;6292875;28;20184;-81
2021/12/30 11:35:44;;;;;;;5.50;4.13;;;;;;;;;;6291770;28;20211;-81
2021/12/30 11:38:49;;;;;;;4.90;4.50;;;;;;;;;;6290892;28;20421;-80
2021/12/30 11:41:57;;;;;;;6.73;4.20;;;;;;;;;;6291927;28;20186;-80
2021/12/30 11:45:02;;;;;;;5.73;4.40;;;;;;;;;;6292682;28;20257;-81
2021/12/30 11:48:23;;;;;;;5.13;4.30;;;;;;;;;;6294228;28;20296;-81
2021/12/30 11:51:42;;;;;;;5.87;4.20;;;;;;;;;;6292668;28;20209;-80
2021/12/30 11:54:48;;;;;;;4.90;4.47;;;;;;;;;;6292650;28;20236;-80
2021/12/30 11:57:52;;;;;;;10.10;4.60;;;;;;;;;;6292648;28;20197;-80
2021/12/30 12:00:57;;;;;;;6.70;4.27;;;;;;;;;;6292049;28;20191;-81
2021/12/30 12:04:08;;;;;;;11.27;5.67;;;;;;;;;;6291517;28;20251;-80
2021/12/30 12:07:14;;;;;;;14.27;6.57;;;;;;;;;;6291603;28;20192;-81
2021/12/30 12:10:20;;;;;;;12.20;6.40;;;;;;;;;;6291582;28;20472;-81
2021/12/30 12:13:35;;;;;;;12.67;7.23;;;;;;;;;;6291189;28;20250;-81
2021/12/30 12:16:47;;;;;;;18.27;7.97;;;;;;;;;;6290983;28;20250;-80
2021/12/30 12:19:53;;;;;;;15.13;7.60;;;;;;;;;;6291581;28;20188;-80
2021/12/30 12:22:58;;;;;;;15.80;7.77;;;;;;;;;;6291480;28;20189;-81
2021/12/30 12:26:08;;;;;;;18.00;8.67;;;;;;;;;;6290840;28;20238;-80
2021/12/30 12:29:23;;;;;;;17.33;8.73;;;;;;;;;;6292494;28;20185;-80
2021/12/30 12:32:38;;;;;;;22.50;8.60;;;;;;;;;;6293964;28;20223;-81
2021/12/30 12:35:43;;;;;;;22.57;8.63;;;;;;;;;;6294153;28;20273;-82
2021/12/30 12:38:49;;;;;;;23.67;9.07;;;;;;;;;;6293240;28;20381;-80
2021/12/30 12:41:54;;;;;;;18.27;8.50;;;;;;;;;;6294659;28;20209;-81
2021/12/30 12:45:16;;;;;;;20.10;9.20;;;;;;;;;;6292696;28;20412;-80
2021/12/30 12:48:31;;;;;;;17.43;8.10;;;;;;;;;;6293197;28;20191;-80
2021/12/30 12:51:36;;;;;;;20.77;8.43;;;;;;;;;;6294297;28;20207;-81
2021/12/30 12:54:47;;;;;;;21.90;8.80;;;;;;;;;;6292738;28;20372;-79
2021/12/30 12:57:52;;;;;;;17.07;8.30;;;;;;;;;;6292886;28;20188;-82
2021/12/30 13:00:57;;;;;;;21.50;9.30;;;;;;;;;;6294116;28;20195;-82
2021/12/30 13:04:05;;;;;;;16.63;8.67;;;;;;;;;;6294400;28;20381;-80
2021/12/30 13:07:11;;;;;;;20.10;8.37;;;;;;;;;;6295879;28;20195;-82
2021/12/30 13:10:19;;;;;;;21.97;8.33;;;;;;;;;;6294508;28;20422;-83
2021/12/30 13:13:33;;;;;;;17.57;8.73;;;;;;;;;;6295250;28;20186;-81
2021/12/30 13:16:40;;;;;;;22.30;8.80;;;;;;;;;;6294483;28;20244;-80
2021/12/30 13:19:46;;;;;;;21.03;8.40;;;;;;;;;;6295866;28;20191;-80
2021/12/30 13:22:50;;;;;;;19.97;9.03;;;;;;;;;;6291598;28;20187;-80
2021/12/30 13:26:03;;;;;;;19.47;8.80;;;;;;;;;;6292112;28;20336;-82
2021/12/30 13:29:09;;;;;;;21.40;8.63;;;;;;;;;;6324048;28;20233;-80
2021/12/30 13:32:16;;;;;;;13.93;8.00;;;;;;;;;;6292871;28;20221;-81
2021/12/30 13:35:23;;;;;;;19.37;8.40;;;;;;;;;;6291902;28;20486;-85
2021/12/30 13:38:27;;;;;;;15.87;8.67;;;;;;;;;;6293283;28;20195;-82
2021/12/30 13:41:31;;;;;;;19.27;8.50;;;;;;;;;;6292942;28;20193;-84
2021/12/30 13:44:41;;;;;;;19.93;7.93;;;;;;;;;;6293861;28;20500;-80
2021/12/30 13:47:45;;;;;;;14.37;6.97;;;;;;;;;;6292466;28;20303;-82
2021/12/30 13:50:52;;;;;;;16.50;8.53;;;;;;;;;;6292406;28;20262;-78
2021/12/30 13:53:56;;;;;;;15.20;7.77;;;;;;;;;;6292502;28;20232;-83
2021/12/30 13:57:01;;;;;;;14.27;7.67;;;;;;;;;;6290662;28;20227;-83
2021/12/30 14:00:10;;;;;;;16.50;7.37;;;;;;;;;;6293572;28;20187;-82
2021/12/30 14:03:21;;;;;;;18.80;7.70;;;;;;;;;;6293159;28;20257;-84
2021/12/30 14:06:27;;;;;;;11.97;6.77;;;;;;;;;;6291213;28;20188;-78
2021/12/30 14:09:31;;;;;;;11.30;7.07;;;;;;;;;;6292307;28;20184;-80
2021/12/30 14:12:35;;;;;;;13.27;6.20;;;;;;;;;;6291974;28;20208;-79
2021/12/30 14:15:41;;;;;;;13.77;7.00;;;;;;;;;;6290457;28;20197;-77
2021/12/30 14:18:46;;;;;;;14.97;6.57;;;;;;;;;;6288626;28;20246;-77
2021/12/30 14:21:50;;;;;;;17.37;7.20;;;;;;;;;;6290108;28;20244;-78
2021/12/30 14:24:54;;;;;;;10.07;6.30;;;;;;;;;;6291386;28;20184;-78
2021/12/30 14:27:59;;;;;;;12.00;6.43;;;;;;;;;;6290512;28;20256;-77
2021/12/30 14:31:04;;;;;;;12.97;5.83;;;;;;;;;;6290243;28;20190;-79
2021/12/30 14:34:14;;;;;;;16.20;6.33;;;;;;;;;;6291380;28;20226;-78
2021/12/30 14:37:22;;;;;;;12.70;5.70;;;;;;;;;;6291327;28;20280;-79
2021/12/30 14:40:26;;;;;;;10.77;5.53;;;;;;;;;;6291833;28;20236;-78
2021/12/30 14:43:30;;;;;;;11.40;6.03;;;;;;;;;;6291315;28;20193;-78
2021/12/30 14:46:37;;;;;;;9.17;5.30;;;;;;;;;;6290312;28;20313;-80
2021/12/30 14:49:53;;;;;;;8.03;5.03;;;;;;;;;;6290071;28;20485;-76
2021/12/30 14:53:00;;;;;;;7.90;4.90;;;;;;;;;;6288962;28;20471;-78
2021/12/30 14:56:05;;;;;;;10.00;5.43;;;;;;;;;;6289179;28;20251;-80
2021/12/30 14:59:09;;;;;;;6.10;5.00;;;;;;;;;;6290353;28;20184;-83
2021/12/30 15:02:16;;;;;;;9.90;5.97;;;;;;;;;;6290213;28;20251;-83
2021/12/30 15:05:22;;;;;;;5.03;4.50;;;;;;;;;;6291633;28;20185;-78
2021/12/30 15:08:27;;;;;;;6.47;4.73;;;;;;;;;;6292307;28;20191;-79
2021/12/30 15:11:32;;;;;;;8.23;4.37;;;;;;;;;;6290467;28;20413;-82
2021/12/30 15:14:37;;;;;;;5.30;4.80;;;;;;;;;;6289491;28;20210;-80
2021/12/30 15:17:42;;;;;;;5.77;4.80;;;;;;;;;;6287930;28;20609;-80
2021/12/30 15:20:47;;;;;;;6.57;5.00;;;;;;;;;;6290172;28;20190;-80
2021/12/30 15:23:51;;;;;;;9.17;4.97;;;;;;;;;;6290477;28;20186;-80
2021/12/30 15:26:55;;;;;;;8.17;4.67;;;;;;;;;;6289307;28;20222;-80
2021/12/30 15:29:59;;;;;;;14.83;4.80;;;;;;;;;;6289480;28;20361;-80
2021/12/30 15:33:26;;;;;;;8.17;4.47;;;;;;;;;;6289193;28;20192;-80
2021/12/30 15:36:30;;;;;;;4.87;4.43;;;;;;;;;;6289146;28;20303;-81
2021/12/30 15:39:34;;;;;;;5.13;4.63;;;;;;;;;;6288616;28;20210;-81
2021/12/30 15:42:39;;;;;;;6.13;4.73;;;;;;;;;;6289503;28;20187;-80
2021/12/30 15:45:44;;;;;;;7.90;5.20;;;;;;;;;;6287720;28;20246;-80
2021/12/30 15:48:50;;;;;;;5.30;4.10;;;;;;;;;;6287193;28;20192;-80
2021/12/30 15:51:55;;;;;;;5.10;4.60;;;;;;;;;;6287386;28;20186;-80
2021/12/30 15:54:59;;;;;;;4.97;4.47;;;;;;;;;;6286836;28;20234;-81
2021/12/30 15:58:04;;;;;;;4.27;3.90;;;;;;;;;;6288421;28;20233;-78
2021/12/30 16:01:08;;;;;;;5.67;4.10;;;;;;;;;;6287304;28;20218;-76
2021/12/30 16:04:16;;;;;;;4.93;4.37;;;;;;;;;;6292637;28;20188;-80
2021/12/30 16:07:20;;;;;;;8.40;4.60;;;;;;;;;;6293641;28;20194;-80
2021/12/30 16:10:25;;;;;;;7.93;4.53;;;;;;;;;;6293892;28;20188;-81
2021/12/30 16:13:29;;;;;;;5.77;4.03;;;;;;;;;;6293908;28;20192;-81
2021/12/30 16:16:33;;;;;;;5.47;4.50;;;;;;;;;;6295747;28;20253;-81
2021/12/30 16:19:39;;;;;;;7.03;4.57;;;;;;;;;;6297339;28;20222;-81
2021/12/30 16:22:45;;;;;;;13.00;5.40;;;;;;;;;;6298250;28;20185;-81
2021/12/30 16:25:49;;;;;;;4.83;4.27;;;;;;;;;;6297280;28;20274;-82
2021/12/30 16:28:54;;;;;;;5.23;4.47;;;;;;;;;;6299812;28;20284;-80
2021/12/30 16:31:58;;;;;;;4.63;3.40;;;;;;;;;;6299449;28;20187;-80
2021/12/30 16:35:05;;;;;;;3.80;3.50;;;;;;;;;;6296999;28;20187;-80
2021/12/30 16:38:14;;;;;;;6.50;4.13;;;;;;;;;;6295221;28;20215;-80
2021/12/30 16:41:20;;;;;;;10.27;4.33;;;;;;;;;;6296420;28;20187;-80
2021/12/30 16:44:24;;;;;;;4.27;3.90;;;;;;;;;;6296093;28;20330;-80
2021/12/30 16:47:28;;;;;;;9.03;4.27;;;;;;;;;;6296511;28;20439;-80
2021/12/30 16:50:36;;;;;;;6.23;4.20;;;;;;;;;;6295495;28;20305;-80
2021/12/30 16:53:40;;;;;;;9.30;4.27;;;;;;;;;;6296422;28;20187;-80
2021/12/30 16:56:45;;;;;;;5.63;4.13;;;;;;;;;;6294822;28;20217;-80
2021/12/30 16:59:50;;;;;;;5.00;3.40;;;;;;;;;;6295923;28;20216;-79
2021/12/30 17:02:54;;;;;;;9.17;4.10;;;;;;;;;;6296545;28;20210;-79
2021/12/30 17:06:01;;;;;;;5.23;3.50;;;;;;;;;;6295390;28;20384;-81
2021/12/30 17:09:05;;;;;;;9.63;4.07;;;;;;;;;;6295545;28;20195;-81
2021/12/30 17:12:09;;;;;;;7.93;3.67;;;;;;;;;;6296147;28;20250;-81
2021/12/30 17:15:14;;;;;;;8.30;3.73;;;;;;;;;;6294167;28;20351;-81
2021/12/30 17:18:21;;;;;;;4.40;3.17;;;;;;;;;;6294705;28;20514;-81
2021/12/30 17:21:28;;;;;;;6.20;3.87;;;;;;;;;;6294412;28;20243;-81
2021/12/30 17:24:32;;;;;;;5.53;3.50;;;;;;;;;;6294388;28;20334;-81
2021/12/30 17:27:40;;;;;;;3.33;3.10;;;;;;;;;;6295705;28;20250;-81
2021/12/30 17:30:45;;;;;;;5.97;4.03;;;;;;;;;;6295764;28;20194;-80
2021/12/30 17:33:50;;;;;;;10.00;3.97;;;;;;;;;;6296314;28;20507;-81
2021/12/30 17:36:59;;;;;;;4.07;3.57;;;;;;;;;;6294824;28;20226;-81
2021/12/30 17:40:08;;;;;;;5.87;3.57;;;;;;;;;;6294434;28;20208;-81
2021/12/30 17:43:13;;;;;;;7.77;3.50;;;;;;;;;;6293737;28;20186;-81
2021/12/30 17:46:22;;;;;;;5.30;3.23;;;;;;;;;;6293848;28;20435;-81
2021/12/30 17:49:26;;;;;;;18.67;8.20;;;;;;;;;;6295132;28;20199;-81
2021/12/30 17:52:32;;;;;;;8.33;3.67;;;;;;;;;;6294728;28;20202;-81
2021/12/30 17:55:38;;;;;;;4.10;3.37;;;;;;;;;;6295246;28;20188;-81
2021/12/30 17:58:43;;;;;;;4.33;2.73;;;;;;;;;;6294087;28;20218;-81
2021/12/30 18:01:48;;;;;;;4.00;3.20;;;;;;;;;;6293903;28;20184;-80
2021/12/30 18:04:53;;;;;;;5.83;3.30;;;;;;;;;;6296667;28;20262;-80
2021/12/30 18:07:58;;;;;;;3.77;3.00;;;;;;;;;;6293241;28;20482;-80
2021/12/30 18:11:03;;;;;;;9.53;3.20;;;;;;;;;;6293293;28;20219;-80
2021/12/30 18:14:07;;;;;;;4.03;3.33;;;;;;;;;;6293008;28;20266;-80
2021/12/30 18:17:14;;;;;;;6.80;3.07;;;;;;;;;;6293071;28;20186;-79